Track Рыбаков Андрей

Time Latitude Longitude Accuracy (66% radius in meters) Altitude (meters) Speed (km/hour) Bearing (degrees) Battery (%) GPS flag
09:49:52 55.944012 38.068140 2 175.89999389648 0 0 56 1 delete
09:49:43 55.944018 38.068106 3 176.69999694824 0.44999998807907 168.00842285156 56 1 delete
09:49:34 55.944015 38.068084 2.5 177.80000305176 0 0 56 1 delete
09:49:22 55.944015 38.068084 2 177.80000305176 0 0 56 1 delete
09:49:16 55.944015 38.068084 1.5 177.80000305176 0 0 56 1 delete
09:49:13 55.944002 38.068081 2.5 178.60000610352 0.029999999329448 344.92126464844 56 1 delete
09:49:01 55.943998 38.068053 2 179.89999389648 0 0 56 1 delete
09:48:52 55.943998 38.068053 3 179.89999389648 0 0 56 1 delete
09:48:40 55.943992 38.068017 2.5 179.10000610352 0 0 61 1 delete
09:48:34 55.943991 38.068017 2 179.10000610352 0.22999998927116 132.02270507812 61 1 delete
09:48:31 55.943986 38.068004 2.5 179.69999694824 0.55000001192093 54.964599609375 61 1 delete
09:48:19 55.943974 38.067932 3 180.5 0 0 61 1 delete
09:48:16 55.943974 38.067932 3 180.5 0 0 61 1 delete
09:48:10 55.943952 38.067862 2.5 181.30000305176 1 53.426513671875 61 1 delete
09:48:07 55.943923 38.067799 2.5 182 1.6200000047684 59.4580078125 61 1 delete
09:48:04 55.943899 38.067707 2.5 182.30000305176 2.2000000476837 72.564697265625 61 1 delete
09:48:01 55.943867 38.067592 2 182.69999694824 2.0799999237061 80.540771484375 61 1 delete
09:47:55 55.943844 38.067480 2 183.19999694824 0.42999997735023 16.842041015625 61 1 delete
09:47:52 55.943815 38.067415 1.5 182.39999389648 2.4900000095367 53.651733398438 61 1 delete
09:47:49 55.943731 38.067254 2 184.89999389648 3.4499998092651 23.494262695312 61 1 delete
09:47:46 55.943601 38.067182 2 184.60000610352 3.4499998092651 2.0819091796875 61 1 delete
09:47:43 55.943515 38.067084 2 184.30000305176 3 33.046875 61 1 delete
09:47:40 55.943452 38.066921 2 184.89999389648 2.0799999237061 64.176635742188 61 1 delete
09:47:37 55.943418 38.066789 2 184.10000610352 1.8999999761581 44.796752929688 61 1 delete
09:47:34 55.943384 38.066701 2 184.10000610352 1.2200000286102 60.287475585938 61 1 delete
09:47:31 55.943321 38.066564 2 184.89999389648 2.6199998855591 75.756225585938 61 1 delete
09:47:28 55.943282 38.066390 2 186.60000610352 3.5 73.218383789062 61 1 delete
09:47:25 55.943200 38.066213 2 189.80000305176 2.1900000572205 35.848388671875 61 1 delete
09:47:22 55.943090 38.066169 2 192.5 3.4299998283386 7.84423828125 61 1 delete
09:47:19 55.942940 38.066143 3 192.39999389648 2.0299999713898 355.58898925781 61 1 delete
09:47:16 55.942860 38.066168 3 193.30000305176 1.2999999523163 345.81115722656 61 1 delete
09:47:13 55.942802 38.066279 3 193.60000610352 2.8299999237061 303.36547851562 61 1 delete
09:47:10 55.942720 38.066373 2.5 193.30000305176 3.7200000286102 326.16760253906 61 1 delete
09:47:07 55.942623 38.066455 2.5 193 3.2400000095367 330.17211914062 61 1 delete
09:47:04 55.942508 38.066473 2.5 191.69999694824 3.0499999523163 349.11804199219 61 1 delete
09:47:01 55.942411 38.066505 2.5 190.80000305176 3.0499999523163 323.06396484375 61 1 delete
09:46:58 55.942334 38.066495 2.5 190.10000610352 2.0699999332428 11.859741210938 61 1 delete
09:46:55 55.942284 38.066402 2 190.10000610352 1.4499999284744 44.967041015625 61 1 delete
09:46:49 55.942210 38.066308 2.5 190.80000305176 0 0 61 1 delete
09:46:46 55.942196 38.066299 3 192.60000610352 0.1499999910593 333.544921875 61 1 delete
09:46:43 55.942162 38.066270 3 194.30000305176 1.6200000047684 4.4384765625 61 1 delete
09:46:40 55.942103 38.066255 2.5 195.60000610352 2.9199998378754 347.77770996094 61 1 delete
09:46:37 55.942015 38.066236 2.5 196.89999389648 3.3499999046326 6.580810546875 61 1 delete
09:46:34 55.941904 38.066146 2.5 195.69999694824 3.8999998569489 357.82470703125 61 1 delete
09:46:31 55.941799 38.066044 2.5 195 2.7999999523163 13.430786132812 61 1 delete
09:46:28 55.941724 38.065950 2.5 193.80000305176 2.3099999427795 17.589111328125 61 1 delete
09:46:25 55.941690 38.065861 2.5 191.69999694824 0.87000000476837 78.4423828125 61 1 delete
09:46:22 55.941753 38.065706 2 191.19999694824 3.9099998474121 136.29089355469 61 1 delete
09:46:19 55.941816 38.065515 2 190.10000610352 4.4000000953674 131.11633300781 61 1 delete
09:46:16 55.941879 38.065303 2 190.10000610352 4.4800000190735 146.72241210938 61 1 delete